sensor_id;sensor_type;location;lat;lon;timestamp;temperature;humidity
13892;DHT22;7016;48.172;8.058;2023-06-19T00:00:22;20.10;94.70
13892;DHT22;7016;48.172;8.058;2023-06-19T00:03:08;20.00;95.00
13892;DHT22;7016;48.172;8.058;2023-06-19T00:05:54;19.90;95.00
13892;DHT22;7016;48.172;8.058;2023-06-19T00:08:41;20.00;95.20
13892;DHT22;7016;48.172;8.058;2023-06-19T00:11:28;20.20;94.70
13892;DHT22;7016;48.172;8.058;2023-06-19T00:14:14;20.20;95.00
13892;DHT22;7016;48.172;8.058;2023-06-19T00:17:01;20.10;96.00
13892;DHT22;7016;48.172;8.058;2023-06-19T00:19:47;20.30;95.90
13892;DHT22;7016;48.172;8.058;2023-06-19T00:22:34;20.30;96.40
13892;DHT22;7016;48.172;8.058;2023-06-19T00:25:20;20.40;96.60
13892;DHT22;7016;48.172;8.058;2023-06-19T00:28:06;20.40;97.00
13892;DHT22;7016;48.172;8.058;2023-06-19T00:30:57;20.40;97.40
13892;DHT22;7016;48.172;8.058;2023-06-19T00:33:44;20.30;97.40
13892;DHT22;7016;48.172;8.058;2023-06-19T00:36:31;20.50;97.50
13892;DHT22;7016;48.172;8.058;2023-06-19T00:39:17;20.70;96.30
13892;DHT22;7016;48.172;8.058;2023-06-19T00:42:03;20.70;96.70
13892;DHT22;7016;48.172;8.058;2023-06-19T00:44:50;20.70;97.40
13892;DHT22;7016;48.172;8.058;2023-06-19T00:47:36;20.80;97.10
13892;DHT22;7016;48.172;8.058;2023-06-19T00:50:23;20.70;96.70
13892;DHT22;7016;48.172;8.058;2023-06-19T00:53:10;20.60;98.10
13892;DHT22;7016;48.172;8.058;2023-06-19T00:55:56;20.60;98.20
13892;DHT22;7016;48.172;8.058;2023-06-19T00:58:43;20.50;98.50
13892;DHT22;7016;48.172;8.058;2023-06-19T01:01:30;20.50;98.80
13892;DHT22;7016;48.172;8.058;2023-06-19T01:04:16;20.50;98.50
13892;DHT22;7016;48.172;8.058;2023-06-19T01:07:07;20.50;98.70
13892;DHT22;7016;48.172;8.058;2023-06-19T01:10:00;20.50;97.70
13892;DHT22;7016;48.172;8.058;2023-06-19T01:13:00;20.40;99.50
13892;DHT22;7016;48.172;8.058;2023-06-19T01:15:47;20.20;99.90
13892;DHT22;7016;48.172;8.058;2023-06-19T01:18:34;20.40;99.90
13892;DHT22;7016;48.172;8.058;2023-06-19T01:21:21;20.40;99.70
13892;DHT22;7016;48.172;8.058;2023-06-19T01:24:07;20.40;99.90
13892;DHT22;7016;48.172;8.058;2023-06-19T01:26:53;20.40;99.90
13892;DHT22;7016;48.172;8.058;2023-06-19T01:29:39;20.40;99.90
13892;DHT22;7016;48.172;8.058;2023-06-19T01:32:36;20.40;99.90
13892;DHT22;7016;48.172;8.058;2023-06-19T01:35:27;20.40;99.90
13892;DHT22;7016;48.172;8.058;2023-06-19T01:38:14;20.40;99.90
13892;DHT22;7016;48.172;8.058;2023-06-19T01:41:02;20.30;99.90
13892;DHT22;7016;48.172;8.058;2023-06-19T01:43:50;20.30;99.90
13892;DHT22;7016;48.172;8.058;2023-06-19T01:46:37;20.20;99.90
13892;DHT22;7016;48.172;8.058;2023-06-19T01:49:23;20.20;99.90
13892;DHT22;7016;48.172;8.058;2023-06-19T01:52:09;20.20;99.90
13892;DHT22;7016;48.172;8.058;2023-06-19T01:54:55;20.20;99.90
13892;DHT22;7016;48.172;8.058;2023-06-19T01:57:41;20.10;99.90
13892;DHT22;7016;48.172;8.058;2023-06-19T02:00:28;20.10;99.90
13892;DHT22;7016;48.172;8.058;2023-06-19T02:03:14;20.00;99.90
13892;DHT22;7016;48.172;8.058;2023-06-19T02:06:00;20.00;99.90
13892;DHT22;7016;48.172;8.058;2023-06-19T02:08:47;19.90;99.90
13892;DHT22;7016;48.172;8.058;2023-06-19T02:11:33;19.90;99.90
13892;DHT22;7016;48.172;8.058;2023-06-19T02:14:19;20.00;99.90
13892;DHT22;7016;48.172;8.058;2023-06-19T02:17:05;19.90;99.90
13892;DHT22;7016;48.172;8.058;2023-06-19T02:19:52;19.80;99.90
13892;DHT22;7016;48.172;8.058;2023-06-19T02:22:38;19.80;99.90
13892;DHT22;7016;48.172;8.058;2023-06-19T02:25:24;19.80;99.90
13892;DHT22;7016;48.172;8.058;2023-06-19T02:28:11;19.80;99.90
13892;DHT22;7016;48.172;8.058;2023-06-19T02:30:57;19.80;99.90
13892;DHT22;7016;48.172;8.058;2023-06-19T02:33:43;19.90;99.90
13892;DHT22;7016;48.172;8.058;2023-06-19T02:36:29;19.70;99.90
13892;DHT22;7016;48.172;8.058;2023-06-19T02:39:16;19.70;99.90
13892;DHT22;7016;48.172;8.058;2023-06-19T02:42:03;19.70;99.90
13892;DHT22;7016;48.172;8.058;2023-06-19T02:44:49;19.70;99.90
13892;DHT22;7016;48.172;8.058;2023-06-19T02:47:36;19.70;99.90
13892;DHT22;7016;48.172;8.058;2023-06-19T02:50:22;19.70;99.90
13892;DHT22;7016;48.172;8.058;2023-06-19T02:53:08;19.70;99.90
13892;DHT22;7016;48.172;8.058;2023-06-19T02:55:54;19.70;99.90
13892;DHT22;7016;48.172;8.058;2023-06-19T02:58:40;19.70;99.90
13892;DHT22;7016;48.172;8.058;2023-06-19T03:01:27;19.60;99.90
13892;DHT22;7016;48.172;8.058;2023-06-19T03:04:13;19.70;99.90
13892;DHT22;7016;48.172;8.058;2023-06-19T03:06:59;19.60;99.90
13892;DHT22;7016;48.172;8.058;2023-06-19T03:09:45;19.60;99.90
13892;DHT22;7016;48.172;8.058;2023-06-19T03:12:32;19.60;99.90
13892;DHT22;7016;48.172;8.058;2023-06-19T03:15:18;19.60;99.90
13892;DHT22;7016;48.172;8.058;2023-06-19T03:18:04;19.60;99.90
13892;DHT22;7016;48.172;8.058;2023-06-19T03:20:52;19.60;99.90
13892;DHT22;7016;48.172;8.058;2023-06-19T03:23:39;19.50;99.90
13892;DHT22;7016;48.172;8.058;2023-06-19T03:26:27;19.40;99.90
13892;DHT22;7016;48.172;8.058;2023-06-19T03:29:13;19.50;99.90
13892;DHT22;7016;48.172;8.058;2023-06-19T03:31:59;19.50;99.90
13892;DHT22;7016;48.172;8.058;2023-06-19T03:34:45;19.50;99.90
13892;DHT22;7016;48.172;8.058;2023-06-19T03:37:32;19.50;99.90
13892;DHT22;7016;48.172;8.058;2023-06-19T03:40:20;19.50;99.90
13892;DHT22;7016;48.172;8.058;2023-06-19T03:43:07;19.50;99.90
13892;DHT22;7016;48.172;8.058;2023-06-19T03:45:53;19.40;99.90
13892;DHT22;7016;48.172;8.058;2023-06-19T03:48:39;19.40;99.90
13892;DHT22;7016;48.172;8.058;2023-06-19T03:51:25;19.40;99.90
13892;DHT22;7016;48.172;8.058;2023-06-19T03:54:11;19.40;99.90
13892;DHT22;7016;48.172;8.058;2023-06-19T03:56:57;19.40;99.90
13892;DHT22;7016;48.172;8.058;2023-06-19T03:59:44;19.40;99.90
13892;DHT22;7016;48.172;8.058;2023-06-19T04:02:30;19.50;99.90
13892;DHT22;7016;48.172;8.058;2023-06-19T04:05:16;19.50;99.90
13892;DHT22;7016;48.172;8.058;2023-06-19T04:08:02;19.50;99.90
13892;DHT22;7016;48.172;8.058;2023-06-19T04:10:50;19.50;99.90
13892;DHT22;7016;48.172;8.058;2023-06-19T04:13:36;19.60;99.90
13892;DHT22;7016;48.172;8.058;2023-06-19T04:16:22;19.50;99.90
13892;DHT22;7016;48.172;8.058;2023-06-19T04:19:08;19.50;99.90
13892;DHT22;7016;48.172;8.058;2023-06-19T04:21:54;19.50;99.90
13892;DHT22;7016;48.172;8.058;2023-06-19T04:24:40;19.40;99.90
13892;DHT22;7016;48.172;8.058;2023-06-19T04:27:26;19.40;99.90
13892;DHT22;7016;48.172;8.058;2023-06-19T04:30:13;19.40;99.90
13892;DHT22;7016;48.172;8.058;2023-06-19T04:32:59;19.50;99.90
13892;DHT22;7016;48.172;8.058;2023-06-19T04:35:45;19.50;99.90
13892;DHT22;7016;48.172;8.058;2023-06-19T04:38:31;19.50;99.90
13892;DHT22;7016;48.172;8.058;2023-06-19T04:41:18;19.60;99.90
13892;DHT22;7016;48.172;8.058;2023-06-19T04:44:05;19.50;99.90
13892;DHT22;7016;48.172;8.058;2023-06-19T04:46:52;19.50;99.90
13892;DHT22;7016;48.172;8.058;2023-06-19T04:49:46;19.60;99.90
13892;DHT22;7016;48.172;8.058;2023-06-19T04:52:32;19.50;99.90
13892;DHT22;7016;48.172;8.058;2023-06-19T04:55:19;19.50;99.90
13892;DHT22;7016;48.172;8.058;2023-06-19T04:58:05;19.50;99.90
13892;DHT22;7016;48.172;8.058;2023-06-19T05:00:51;19.50;99.90
13892;DHT22;7016;48.172;8.058;2023-06-19T05:03:39;19.50;99.90
13892;DHT22;7016;48.172;8.058;2023-06-19T05:06:25;19.60;99.90
13892;DHT22;7016;48.172;8.058;2023-06-19T05:09:12;19.70;99.90
13892;DHT22;7016;48.172;8.058;2023-06-19T05:11:58;19.70;99.90
13892;DHT22;7016;48.172;8.058;2023-06-19T05:14:44;19.70;99.90
13892;DHT22;7016;48.172;8.058;2023-06-19T05:17:30;19.70;99.90
13892;DHT22;7016;48.172;8.058;2023-06-19T05:20:17;19.70;99.90
13892;DHT22;7016;48.172;8.058;2023-06-19T05:23:03;19.70;99.90
13892;DHT22;7016;48.172;8.058;2023-06-19T05:25:49;19.70;99.90
13892;DHT22;7016;48.172;8.058;2023-06-19T05:28:36;19.80;99.90
13892;DHT22;7016;48.172;8.058;2023-06-19T05:31:22;19.80;99.90
13892;DHT22;7016;48.172;8.058;2023-06-19T05:34:08;19.90;99.90
13892;DHT22;7016;48.172;8.058;2023-06-19T05:36:54;19.90;99.90
13892;DHT22;7016;48.172;8.058;2023-06-19T05:39:40;20.00;99.90
13892;DHT22;7016;48.172;8.058;2023-06-19T05:42:26;19.90;99.90
13892;DHT22;7016;48.172;8.058;2023-06-19T05:45:13;19.80;99.90
13892;DHT22;7016;48.172;8.058;2023-06-19T05:47:59;19.90;99.90
13892;DHT22;7016;48.172;8.058;2023-06-19T05:50:45;19.90;99.90
13892;DHT22;7016;48.172;8.058;2023-06-19T05:53:31;19.90;99.90
13892;DHT22;7016;48.172;8.058;2023-06-19T05:56:17;20.00;99.90
13892;DHT22;7016;48.172;8.058;2023-06-19T05:59:04;20.30;99.90
13892;DHT22;7016;48.172;8.058;2023-06-19T06:01:50;20.30;99.90
13892;DHT22;7016;48.172;8.058;2023-06-19T06:04:36;20.30;99.90
13892;DHT22;7016;48.172;8.058;2023-06-19T06:07:22;20.30;99.90
13892;DHT22;7016;48.172;8.058;2023-06-19T06:10:09;20.30;99.90
13892;DHT22;7016;48.172;8.058;2023-06-19T06:12:56;20.30;99.90
13892;DHT22;7016;48.172;8.058;2023-06-19T06:15:42;20.50;99.90
13892;DHT22;7016;48.172;8.058;2023-06-19T06:18:28;20.70;99.90
13892;DHT22;7016;48.172;8.058;2023-06-19T06:21:14;20.90;99.90
13892;DHT22;7016;48.172;8.058;2023-06-19T06:24:01;21.10;99.90
13892;DHT22;7016;48.172;8.058;2023-06-19T06:26:47;21.30;99.90
13892;DHT22;7016;48.172;8.058;2023-06-19T06:29:33;21.40;99.90
13892;DHT22;7016;48.172;8.058;2023-06-19T06:32:20;21.40;99.90
13892;DHT22;7016;48.172;8.058;2023-06-19T06:35:06;21.60;99.90
13892;DHT22;7016;48.172;8.058;2023-06-19T06:37:52;21.70;99.90
13892;DHT22;7016;48.172;8.058;2023-06-19T06:40:38;21.90;99.90
13892;DHT22;7016;48.172;8.058;2023-06-19T06:43:25;21.90;99.90
13892;DHT22;7016;48.172;8.058;2023-06-19T06:46:11;21.90;99.90
13892;DHT22;7016;48.172;8.058;2023-06-19T06:48:57;22.00;99.90
13892;DHT22;7016;48.172;8.058;2023-06-19T06:51:43;22.00;99.90
13892;DHT22;7016;48.172;8.058;2023-06-19T06:54:29;22.00;99.90
13892;DHT22;7016;48.172;8.058;2023-06-19T06:57:16;22.10;99.90
13892;DHT22;7016;48.172;8.058;2023-06-19T07:00:04;22.20;99.90
13892;DHT22;7016;48.172;8.058;2023-06-19T07:02:50;22.30;99.90
13892;DHT22;7016;48.172;8.058;2023-06-19T07:05:37;22.50;99.90
13892;DHT22;7016;48.172;8.058;2023-06-19T07:08:23;22.60;99.90
13892;DHT22;7016;48.172;8.058;2023-06-19T07:11:09;22.70;99.90
13892;DHT22;7016;48.172;8.058;2023-06-19T07:13:55;22.60;99.90
13892;DHT22;7016;48.172;8.058;2023-06-19T07:16:41;22.60;99.90
13892;DHT22;7016;48.172;8.058;2023-06-19T07:19:28;22.90;99.90
13892;DHT22;7016;48.172;8.058;2023-06-19T07:22:15;22.90;99.90
13892;DHT22;7016;48.172;8.058;2023-06-19T07:25:02;22.90;99.90
13892;DHT22;7016;48.172;8.058;2023-06-19T07:27:49;23.10;99.90
13892;DHT22;7016;48.172;8.058;2023-06-19T07:30:35;23.10;99.90
13892;DHT22;7016;48.172;8.058;2023-06-19T07:33:21;23.00;99.90
13892;DHT22;7016;48.172;8.058;2023-06-19T07:36:08;23.00;99.90
13892;DHT22;7016;48.172;8.058;2023-06-19T07:38:59;23.10;99.90
13892;DHT22;7016;48.172;8.058;2023-06-19T07:41:45;23.10;99.90
13892;DHT22;7016;48.172;8.058;2023-06-19T07:44:32;23.10;99.90
13892;DHT22;7016;48.172;8.058;2023-06-19T07:47:18;23.10;99.90
13892;DHT22;7016;48.172;8.058;2023-06-19T07:50:05;23.30;99.90
13892;DHT22;7016;48.172;8.058;2023-06-19T07:52:51;23.30;99.90
13892;DHT22;7016;48.172;8.058;2023-06-19T07:55:37;23.50;99.90
13892;DHT22;7016;48.172;8.058;2023-06-19T07:58:23;23.60;99.90
13892;DHT22;7016;48.172;8.058;2023-06-19T08:01:09;23.60;99.90
13892;DHT22;7016;48.172;8.058;2023-06-19T08:03:56;23.70;99.90
13892;DHT22;7016;48.172;8.058;2023-06-19T08:06:42;23.80;99.90
13892;DHT22;7016;48.172;8.058;2023-06-19T08:09:28;23.70;99.90
13892;DHT22;7016;48.172;8.058;2023-06-19T08:12:15;23.70;99.90
13892;DHT22;7016;48.172;8.058;2023-06-19T08:15:01;23.50;99.90
13892;DHT22;7016;48.172;8.058;2023-06-19T08:17:47;23.50;99.90
13892;DHT22;7016;48.172;8.058;2023-06-19T08:20:33;23.40;99.90
13892;DHT22;7016;48.172;8.058;2023-06-19T08:23:19;23.30;99.90
13892;DHT22;7016;48.172;8.058;2023-06-19T08:26:06;23.30;99.90
13892;DHT22;7016;48.172;8.058;2023-06-19T08:28:53;23.40;99.90
13892;DHT22;7016;48.172;8.058;2023-06-19T08:31:41;23.40;99.90
13892;DHT22;7016;48.172;8.058;2023-06-19T08:34:27;23.60;99.90
13892;DHT22;7016;48.172;8.058;2023-06-19T08:37:14;23.70;99.90
13892;DHT22;7016;48.172;8.058;2023-06-19T08:40:00;23.90;99.50
13892;DHT22;7016;48.172;8.058;2023-06-19T08:42:46;24.00;98.10
13892;DHT22;7016;48.172;8.058;2023-06-19T08:45:33;24.10;97.60
13892;DHT22;7016;48.172;8.058;2023-06-19T08:48:20;24.00;96.30
13892;DHT22;7016;48.172;8.058;2023-06-19T08:51:07;23.90;95.30
13892;DHT22;7016;48.172;8.058;2023-06-19T08:54:00;24.00;95.90
13892;DHT22;7016;48.172;8.058;2023-06-19T08:56:47;24.20;96.70
13892;DHT22;7016;48.172;8.058;2023-06-19T08:59:33;24.30;95.50
13892;DHT22;7016;48.172;8.058;2023-06-19T09:02:19;24.30;95.60
13892;DHT22;7016;48.172;8.058;2023-06-19T09:05:24;24.40;94.80
13892;DHT22;7016;48.172;8.058;2023-06-19T09:08:13;24.50;95.10
13892;DHT22;7016;48.172;8.058;2023-06-19T09:11:02;24.50;96.30
13892;DHT22;7016;48.172;8.058;2023-06-19T09:13:56;24.50;95.80
13892;DHT22;7016;48.172;8.058;2023-06-19T09:16:43;24.50;95.70
13892;DHT22;7016;48.172;8.058;2023-06-19T09:19:29;24.60;93.40
13892;DHT22;7016;48.172;8.058;2023-06-19T09:22:17;24.70;94.00
13892;DHT22;7016;48.172;8.058;2023-06-19T09:25:07;24.90;94.10
13892;DHT22;7016;48.172;8.058;2023-06-19T09:27:56;24.90;93.40
13892;DHT22;7016;48.172;8.058;2023-06-19T09:30:52;25.30;93.40
13892;DHT22;7016;48.172;8.058;2023-06-19T09:33:39;25.30;92.60
13892;DHT22;7016;48.172;8.058;2023-06-19T09:36:25;25.20;91.30
13892;DHT22;7016;48.172;8.058;2023-06-19T09:39:13;25.40;91.30
13892;DHT22;7016;48.172;8.058;2023-06-19T09:42:02;25.40;91.50
13892;DHT22;7016;48.172;8.058;2023-06-19T09:44:51;25.50;92.10
13892;DHT22;7016;48.172;8.058;2023-06-19T09:47:43;25.60;91.30
13892;DHT22;7016;48.172;8.058;2023-06-19T09:50:30;25.60;90.10
13892;DHT22;7016;48.172;8.058;2023-06-19T09:53:18;25.70;90.80
13892;DHT22;7016;48.172;8.058;2023-06-19T09:56:04;25.90;90.70
13892;DHT22;7016;48.172;8.058;2023-06-19T09:58:53;25.90;89.40
13892;DHT22;7016;48.172;8.058;2023-06-19T10:01:40;25.90;89.90
13892;DHT22;7016;48.172;8.058;2023-06-19T10:04:28;25.90;87.80
13892;DHT22;7016;48.172;8.058;2023-06-19T10:07:23;25.90;88.40
13892;DHT22;7016;48.172;8.058;2023-06-19T10:10:11;26.10;88.10
13892;DHT22;7016;48.172;8.058;2023-06-19T10:12:59;26.10;85.20
13892;DHT22;7016;48.172;8.058;2023-06-19T10:15:46;26.20;86.60
13892;DHT22;7016;48.172;8.058;2023-06-19T10:21:47;26.20;81.50
13892;DHT22;7016;48.172;8.058;2023-06-19T10:24:34;26.40;81.90
13892;DHT22;7016;48.172;8.058;2023-06-19T10:27:22;26.40;80.50
13892;DHT22;7016;48.172;8.058;2023-06-19T10:30:16;26.40;81.00
13892;DHT22;7016;48.172;8.058;2023-06-19T10:33:04;26.50;82.50
13892;DHT22;7016;48.172;8.058;2023-06-19T10:35:50;26.50;81.20
13892;DHT22;7016;48.172;8.058;2023-06-19T10:38:37;26.60;81.00
13892;DHT22;7016;48.172;8.058;2023-06-19T10:41:25;26.70;79.00
13892;DHT22;7016;48.172;8.058;2023-06-19T10:44:11;26.60;78.40
13892;DHT22;7016;48.172;8.058;2023-06-19T10:47:01;26.70;79.60
13892;DHT22;7016;48.172;8.058;2023-06-19T10:49:48;26.70;77.40
13892;DHT22;7016;48.172;8.058;2023-06-19T10:52:35;26.60;79.20
13892;DHT22;7016;48.172;8.058;2023-06-19T10:55:21;26.90;77.90
13892;DHT22;7016;48.172;8.058;2023-06-19T10:58:07;26.90;78.70
13892;DHT22;7016;48.172;8.058;2023-06-19T11:00:53;26.90;79.50
13892;DHT22;7016;48.172;8.058;2023-06-19T11:03:40;27.00;80.10
13892;DHT22;7016;48.172;8.058;2023-06-19T11:06:26;27.00;78.90
13892;DHT22;7016;48.172;8.058;2023-06-19T11:09:13;27.30;80.10
13892;DHT22;7016;48.172;8.058;2023-06-19T11:11:59;27.30;79.90
13892;DHT22;7016;48.172;8.058;2023-06-19T11:14:48;27.30;73.70
13892;DHT22;7016;48.172;8.058;2023-06-19T11:17:35;27.30;76.40
13892;DHT22;7016;48.172;8.058;2023-06-19T11:20:21;27.60;76.10
13892;DHT22;7016;48.172;8.058;2023-06-19T11:23:07;27.60;75.30
13892;DHT22;7016;48.172;8.058;2023-06-19T11:25:53;27.60;75.10
13892;DHT22;7016;48.172;8.058;2023-06-19T11:28:39;27.50;73.50
13892;DHT22;7016;48.172;8.058;2023-06-19T11:31:27;27.60;76.60
13892;DHT22;7016;48.172;8.058;2023-06-19T11:34:14;27.80;74.80
13892;DHT22;7016;48.172;8.058;2023-06-19T11:37:00;27.70;71.60
13892;DHT22;7016;48.172;8.058;2023-06-19T11:39:48;27.50;70.90
13892;DHT22;7016;48.172;8.058;2023-06-19T11:42:47;27.50;72.50
13892;DHT22;7016;48.172;8.058;2023-06-19T11:45:45;27.60;73.10
13892;DHT22;7016;48.172;8.058;2023-06-19T11:48:31;27.70;71.20
13892;DHT22;7016;48.172;8.058;2023-06-19T11:51:17;27.80;73.00
13892;DHT22;7016;48.172;8.058;2023-06-19T11:54:08;27.90;73.40
13892;DHT22;7016;48.172;8.058;2023-06-19T11:56:54;27.90;73.90
13892;DHT22;7016;48.172;8.058;2023-06-19T11:59:41;28.00;72.50
13892;DHT22;7016;48.172;8.058;2023-06-19T12:02:27;28.00;71.40
13892;DHT22;7016;48.172;8.058;2023-06-19T12:05:14;27.80;70.20
13892;DHT22;7016;48.172;8.058;2023-06-19T12:08:00;27.60;71.10
13892;DHT22;7016;48.172;8.058;2023-06-19T12:10:48;27.70;74.70
13892;DHT22;7016;48.172;8.058;2023-06-19T12:13:34;27.80;74.60
13892;DHT22;7016;48.172;8.058;2023-06-19T12:16:20;27.90;75.90
13892;DHT22;7016;48.172;8.058;2023-06-19T12:19:07;27.90;70.80
13892;DHT22;7016;48.172;8.058;2023-06-19T12:21:53;27.80;71.30
13892;DHT22;7016;48.172;8.058;2023-06-19T12:24:39;27.80;74.30
13892;DHT22;7016;48.172;8.058;2023-06-19T12:27:25;27.70;72.50
13892;DHT22;7016;48.172;8.058;2023-06-19T12:30:12;27.70;72.30
13892;DHT22;7016;48.172;8.058;2023-06-19T12:32:58;27.80;74.00
13892;DHT22;7016;48.172;8.058;2023-06-19T12:35:45;27.80;73.80
13892;DHT22;7016;48.172;8.058;2023-06-19T12:38:31;27.90;75.30
13892;DHT22;7016;48.172;8.058;2023-06-19T12:41:17;28.00;75.00
13892;DHT22;7016;48.172;8.058;2023-06-19T12:44:08;28.00;72.60
13892;DHT22;7016;48.172;8.058;2023-06-19T12:47:01;28.00;72.70
13892;DHT22;7016;48.172;8.058;2023-06-19T12:49:50;27.90;71.30
13892;DHT22;7016;48.172;8.058;2023-06-19T12:52:37;27.80;72.90
13892;DHT22;7016;48.172;8.058;2023-06-19T12:55:23;27.80;73.10
13892;DHT22;7016;48.172;8.058;2023-06-19T12:58:09;27.90;75.00
13892;DHT22;7016;48.172;8.058;2023-06-19T13:00:55;27.80;72.00
13892;DHT22;7016;48.172;8.058;2023-06-19T13:03:42;27.80;73.90
13892;DHT22;7016;48.172;8.058;2023-06-19T13:06:28;27.90;74.10
13892;DHT22;7016;48.172;8.058;2023-06-19T13:09:14;28.00;74.00
13892;DHT22;7016;48.172;8.058;2023-06-19T13:12:02;28.00;75.10
13892;DHT22;7016;48.172;8.058;2023-06-19T13:14:48;28.10;75.50
13892;DHT22;7016;48.172;8.058;2023-06-19T13:17:34;28.10;74.00
13892;DHT22;7016;48.172;8.058;2023-06-19T13:20:20;28.10;74.90
13892;DHT22;7016;48.172;8.058;2023-06-19T13:23:07;28.10;75.10
13892;DHT22;7016;48.172;8.058;2023-06-19T13:25:54;28.00;76.00
13892;DHT22;7016;48.172;8.058;2023-06-19T13:28:40;28.00;74.20
13892;DHT22;7016;48.172;8.058;2023-06-19T13:31:27;28.00;76.30
13892;DHT22;7016;48.172;8.058;2023-06-19T13:34:13;27.90;74.30
13892;DHT22;7016;48.172;8.058;2023-06-19T13:36:59;27.90;74.30
13892;DHT22;7016;48.172;8.058;2023-06-19T13:39:46;28.00;76.80
13892;DHT22;7016;48.172;8.058;2023-06-19T13:42:32;28.00;78.30
13892;DHT22;7016;48.172;8.058;2023-06-19T13:45:19;28.00;74.90
13892;DHT22;7016;48.172;8.058;2023-06-19T13:48:05;28.00;74.60
13892;DHT22;7016;48.172;8.058;2023-06-19T13:50:51;28.00;75.80
13892;DHT22;7016;48.172;8.058;2023-06-19T13:53:38;28.00;76.70
13892;DHT22;7016;48.172;8.058;2023-06-19T13:56:24;28.00;74.20
13892;DHT22;7016;48.172;8.058;2023-06-19T13:59:10;27.90;73.60
13892;DHT22;7016;48.172;8.058;2023-06-19T14:01:56;27.90;73.80
13892;DHT22;7016;48.172;8.058;2023-06-19T14:04:42;28.00;75.30
13892;DHT22;7016;48.172;8.058;2023-06-19T14:07:29;28.00;74.80
13892;DHT22;7016;48.172;8.058;2023-06-19T14:10:15;28.10;74.00
13892;DHT22;7016;48.172;8.058;2023-06-19T14:13:01;28.10;74.50
13892;DHT22;7016;48.172;8.058;2023-06-19T14:15:47;28.20;73.30
13892;DHT22;7016;48.172;8.058;2023-06-19T14:18:33;28.20;74.40
13892;DHT22;7016;48.172;8.058;2023-06-19T14:21:22;28.30;74.90
13892;DHT22;7016;48.172;8.058;2023-06-19T14:24:09;28.40;74.30
13892;DHT22;7016;48.172;8.058;2023-06-19T14:26:55;28.40;74.50
13892;DHT22;7016;48.172;8.058;2023-06-19T14:29:41;27.60;72.10
13892;DHT22;7016;48.172;8.058;2023-06-19T14:32:27;28.40;73.70
13892;DHT22;7016;48.172;8.058;2023-06-19T14:35:14;28.40;73.10
13892;DHT22;7016;48.172;8.058;2023-06-19T14:38:00;28.40;73.50
13892;DHT22;7016;48.172;8.058;2023-06-19T14:40:46;28.50;73.90
13892;DHT22;7016;48.172;8.058;2023-06-19T14:43:32;28.50;73.70
13892;DHT22;7016;48.172;8.058;2023-06-19T14:46:20;28.40;73.20
13892;DHT22;7016;48.172;8.058;2023-06-19T14:49:09;28.50;71.40
13892;DHT22;7016;48.172;8.058;2023-06-19T14:51:56;28.50;72.50
13892;DHT22;7016;48.172;8.058;2023-06-19T14:54:43;28.50;73.30
13892;DHT22;7016;48.172;8.058;2023-06-19T14:57:29;28.50;73.00
13892;DHT22;7016;48.172;8.058;2023-06-19T15:00:15;28.50;73.10
13892;DHT22;7016;48.172;8.058;2023-06-19T15:03:01;28.50;74.10
13892;DHT22;7016;48.172;8.058;2023-06-19T15:05:47;28.50;76.40
13892;DHT22;7016;48.172;8.058;2023-06-19T15:08:34;28.40;74.20
13892;DHT22;7016;48.172;8.058;2023-06-19T15:11:21;28.60;72.50
13892;DHT22;7016;48.172;8.058;2023-06-19T15:14:07;28.60;72.90
13892;DHT22;7016;48.172;8.058;2023-06-19T15:16:54;28.70;72.10
13892;DHT22;7016;48.172;8.058;2023-06-19T15:19:40;28.80;73.20
13892;DHT22;7016;48.172;8.058;2023-06-19T15:22:26;28.80;73.20
13892;DHT22;7016;48.172;8.058;2023-06-19T15:25:13;28.70;72.00
13892;DHT22;7016;48.172;8.058;2023-06-19T15:27:59;28.60;73.00
13892;DHT22;7016;48.172;8.058;2023-06-19T15:30:46;28.70;73.70
13892;DHT22;7016;48.172;8.058;2023-06-19T15:33:32;28.70;73.20
13892;DHT22;7016;48.172;8.058;2023-06-19T15:36:18;28.70;73.10
13892;DHT22;7016;48.172;8.058;2023-06-19T15:39:04;28.70;71.50
13892;DHT22;7016;48.172;8.058;2023-06-19T15:41:50;28.70;72.10
13892;DHT22;7016;48.172;8.058;2023-06-19T15:44:37;28.70;72.30
13892;DHT22;7016;48.172;8.058;2023-06-19T15:47:23;28.60;71.30
13892;DHT22;7016;48.172;8.058;2023-06-19T15:50:09;28.50;70.70
13892;DHT22;7016;48.172;8.058;2023-06-19T15:53:01;28.50;71.50
13892;DHT22;7016;48.172;8.058;2023-06-19T15:55:58;28.50;72.20
13892;DHT22;7016;48.172;8.058;2023-06-19T15:58:48;28.40;72.10
13892;DHT22;7016;48.172;8.058;2023-06-19T16:01:36;28.40;72.70
13892;DHT22;7016;48.172;8.058;2023-06-19T16:04:22;28.40;72.30
13892;DHT22;7016;48.172;8.058;2023-06-19T16:07:09;28.40;72.20
13892;DHT22;7016;48.172;8.058;2023-06-19T16:09:55;28.40;72.80
13892;DHT22;7016;48.172;8.058;2023-06-19T16:12:41;28.50;75.90
13892;DHT22;7016;48.172;8.058;2023-06-19T16:15:27;28.50;75.50
13892;DHT22;7016;48.172;8.058;2023-06-19T16:18:14;28.50;73.90
13892;DHT22;7016;48.172;8.058;2023-06-19T16:21:00;28.60;74.10
13892;DHT22;7016;48.172;8.058;2023-06-19T16:23:46;28.60;75.30
13892;DHT22;7016;48.172;8.058;2023-06-19T16:26:33;28.60;76.10
13892;DHT22;7016;48.172;8.058;2023-06-19T16:29:20;28.70;73.40
13892;DHT22;7016;48.172;8.058;2023-06-19T16:32:06;28.60;73.60
13892;DHT22;7016;48.172;8.058;2023-06-19T16:34:52;28.70;77.80
13892;DHT22;7016;48.172;8.058;2023-06-19T16:37:38;28.60;71.80
13892;DHT22;7016;48.172;8.058;2023-06-19T16:40:25;28.50;71.30
13892;DHT22;7016;48.172;8.058;2023-06-19T16:43:11;28.50;79.30
13892;DHT22;7016;48.172;8.058;2023-06-19T16:45:58;28.60;76.80
13892;DHT22;7016;48.172;8.058;2023-06-19T16:48:44;28.70;81.00
13892;DHT22;7016;48.172;8.058;2023-06-19T16:51:31;28.70;78.50
13892;DHT22;7016;48.172;8.058;2023-06-19T16:54:17;28.80;80.10
13892;DHT22;7016;48.172;8.058;2023-06-19T16:57:04;28.70;74.80
13892;DHT22;7016;48.172;8.058;2023-06-19T16:59:50;28.60;79.40
13892;DHT22;7016;48.172;8.058;2023-06-19T17:02:36;28.60;79.90
13892;DHT22;7016;48.172;8.058;2023-06-19T17:05:23;28.60;75.10
13892;DHT22;7016;48.172;8.058;2023-06-19T17:08:09;28.60;78.80
13892;DHT22;7016;48.172;8.058;2023-06-19T17:10:55;28.60;79.70
13892;DHT22;7016;48.172;8.058;2023-06-19T17:13:42;28.50;77.70
13892;DHT22;7016;48.172;8.058;2023-06-19T17:16:28;28.60;76.20
13892;DHT22;7016;48.172;8.058;2023-06-19T17:19:14;28.50;73.10
13892;DHT22;7016;48.172;8.058;2023-06-19T17:22:00;28.50;73.90
13892;DHT22;7016;48.172;8.058;2023-06-19T17:24:46;28.50;74.70
13892;DHT22;7016;48.172;8.058;2023-06-19T17:27:32;28.50;77.30
13892;DHT22;7016;48.172;8.058;2023-06-19T17:30:19;28.50;81.20
13892;DHT22;7016;48.172;8.058;2023-06-19T17:33:05;28.40;87.10
13892;DHT22;7016;48.172;8.058;2023-06-19T17:35:53;28.40;84.20
13892;DHT22;7016;48.172;8.058;2023-06-19T17:38:39;28.30;83.40
13892;DHT22;7016;48.172;8.058;2023-06-19T17:41:25;28.20;82.70
13892;DHT22;7016;48.172;8.058;2023-06-19T17:44:12;28.20;84.00
13892;DHT22;7016;48.172;8.058;2023-06-19T17:46:58;28.10;84.80
13892;DHT22;7016;48.172;8.058;2023-06-19T17:49:44;28.00;84.80
13892;DHT22;7016;48.172;8.058;2023-06-19T17:52:31;28.00;85.80